JES3201 SABE-SAWH
Flight info
| Callsign | JES3201 |
|---|---|
| Flight time | N/A |
| Altitude | 36000 |
| Route | PTA8 GBE UP664 DIL UT662 ASKAS UT704 DABLI DABLI2 |
| Aircraft | A320/M-SDE3FGHIRWY/LB1 |
Departure
| Time | N/A |
|---|---|
| Airport | Aeroparque Jorge Newbery (SABE) |
Arrival
| Time | 2026-04-28 23:01 |
|---|---|
| Airport | Ushuaia - Malvinas Argentinas International Airport (SAWH) |
| Time | Latitude | Longitude | Altitude | Speed | Heading |
|---|---|---|---|---|---|
| 2026-04-28 22:47 | -54.84511 | -68.34701 | 1344 ft | 204 kts | 259° |
| 2026-04-28 22:47 | -54.85156 | -68.36938 | 724 ft | 223 kts | 231° |
| 2026-04-28 22:47 | -54.86446 | -68.38445 | 495 ft | 217 kts | 199° |
| 2026-04-28 22:47 | -54.87847 | -68.38556 | 1070 ft | 200 kts | 174° |
| 2026-04-28 22:48 | -54.89135 | -68.37714 | 1690 ft | 197 kts | 144° |
| 2026-04-28 22:48 | -54.89934 | -68.35908 | 2335 ft | 185 kts | 112° |
| 2026-04-28 22:48 | -54.90102 | -68.33667 | 2993 ft | 190 kts | 95° |
| 2026-04-28 22:48 | -54.90169 | -68.31301 | 3381 ft | 206 kts | 94° |
| 2026-04-28 22:49 | -54.90239 | -68.28820 | 3379 ft | 207 kts | 93° |
| 2026-04-28 22:49 | -54.90309 | -68.26282 | 3381 ft | 208 kts | 93° |
| 2026-04-28 22:49 | -54.90333 | -68.23795 | 3382 ft | 209 kts | 89° |
| 2026-04-28 22:49 | -54.90208 | -68.21265 | 3387 ft | 211 kts | 83° |
| 2026-04-28 22:50 | -54.90020 | -68.18723 | 3389 ft | 213 kts | 82° |
| 2026-04-28 22:50 | -54.89825 | -68.16179 | 3415 ft | 211 kts | 82° |
| 2026-04-28 22:50 | -54.89633 | -68.13647 | 3763 ft | 214 kts | 81° |
| 2026-04-28 22:50 | -54.89439 | -68.11088 | 4116 ft | 213 kts | 78° |
| 2026-04-28 22:51 | -54.89237 | -68.08528 | 4465 ft | 215 kts | 78° |
| 2026-04-28 22:51 | -54.89031 | -68.05941 | 4813 ft | 217 kts | 78° |
| 2026-04-28 22:51 | -54.88823 | -68.03337 | 5098 ft | 221 kts | 78° |
| 2026-04-28 22:51 | -54.88611 | -68.00667 | 5170 ft | 221 kts | 78° |
| 2026-04-28 22:52 | -54.88394 | -67.98006 | 5200 ft | 230 kts | 77° |
| 2026-04-28 22:52 | -54.88158 | -67.95185 | 5205 ft | 238 kts | 77° |
| 2026-04-28 22:52 | -54.87916 | -67.92321 | 5202 ft | 242 kts | 77° |
| 2026-04-28 22:52 | -54.87674 | -67.89460 | 5196 ft | 242 kts | 77° |
| 2026-04-28 22:53 | -54.87428 | -67.86563 | 5197 ft | 243 kts | 77° |
| 2026-04-28 22:53 | -54.87181 | -67.83662 | 5196 ft | 243 kts | 77° |
| 2026-04-28 22:53 | -54.86939 | -67.80831 | 5186 ft | 231 kts | 77° |
| 2026-04-28 22:53 | -54.86625 | -67.78202 | 5162 ft | 215 kts | 62° |
| 2026-04-28 22:54 | -54.85740 | -67.76199 | 5188 ft | 205 kts | 31° |
| 2026-04-28 22:54 | -54.84479 | -67.75329 | 5197 ft | 191 kts | 360° |
| 2026-04-28 22:54 | -54.83223 | -67.75770 | 5200 ft | 183 kts | 328° |
| 2026-04-28 22:54 | -54.82375 | -67.77324 | 5197 ft | 180 kts | 296° |
| 2026-04-28 22:55 | -54.82138 | -67.79467 | 5207 ft | 184 kts | 272° |
| 2026-04-28 22:55 | -54.82285 | -67.81678 | 5206 ft | 185 kts | 265° |
| 2026-04-28 22:55 | -54.82476 | -67.83572 | 5197 ft | 185 kts | 266° |
| 2026-04-28 22:55 | -54.82622 | -67.85773 | 5213 ft | 183 kts | 269° |
| 2026-04-28 22:56 | -54.82729 | -67.87984 | 5173 ft | 192 kts | 270° |
| 2026-04-28 22:56 | -54.82827 | -67.90473 | 4871 ft | 211 kts | 269° |
| 2026-04-28 22:56 | -54.82929 | -67.92989 | 4540 ft | 206 kts | 269° |
| 2026-04-28 22:56 | -54.83025 | -67.95420 | 4225 ft | 199 kts | 269° |
| 2026-04-28 22:57 | -54.83117 | -67.97784 | 3921 ft | 193 kts | 269° |
| 2026-04-28 22:57 | -54.83200 | -68.00066 | 3639 ft | 184 kts | 268° |
| 2026-04-28 22:57 | -54.83279 | -68.02181 | 3369 ft | 168 kts | 266° |
| 2026-04-28 22:57 | -54.83353 | -68.04133 | 3111 ft | 158 kts | 265° |
| 2026-04-28 22:58 | -54.83425 | -68.05987 | 2876 ft | 153 kts | 264° |
| 2026-04-28 22:58 | -54.83497 | -68.07806 | 2644 ft | 148 kts | 263° |
| 2026-04-28 22:58 | -54.83566 | -68.09571 | 2418 ft | 145 kts | 263° |
| 2026-04-28 22:58 | -54.83634 | -68.11303 | 2203 ft | 143 kts | 263° |
| 2026-04-28 22:59 | -54.83701 | -68.13018 | 2004 ft | 142 kts | 264° |
| 2026-04-28 22:59 | -54.83768 | -68.14692 | 1796 ft | 136 kts | 266° |
| 2026-04-28 22:59 | -54.83830 | -68.16306 | 1624 ft | 141 kts | 268° |
| 2026-04-28 22:59 | -54.83892 | -68.17982 | 1394 ft | 138 kts | 268° |
| 2026-04-28 23:00 | -54.83954 | -68.19637 | 1182 ft | 138 kts | 268° |
| 2026-04-28 23:00 | -54.84017 | -68.21292 | 972 ft | 136 kts | 268° |
| 2026-04-28 23:00 | -54.84076 | -68.22920 | 756 ft | 136 kts | 266° |
| 2026-04-28 23:00 | -54.84140 | -68.24577 | 546 ft | 139 kts | 265° |
| 2026-04-28 23:01 | -54.84211 | -68.26232 | 303 ft | 139 kts | 266° |
| 2026-04-28 23:01 | -54.84269 | -68.27895 | 129 ft | 135 kts | 266° |
| 2026-04-28 23:01 | -54.84325 | -68.29285 | 116 ft | 78 kts | 266° |
| 2026-04-28 23:01 | -54.84347 | -68.29947 | 116 ft | 44 kts | 266° |
| 2026-04-28 23:02 | -54.84365 | -68.30409 | 116 ft | 32 kts | 266° |
| 2026-04-28 23:02 | -54.84380 | -68.30791 | 116 ft | 32 kts | 266° |
| 2026-04-28 23:02 | -54.84340 | -68.30961 | 116 ft | 15 kts | 22° |
| 2026-04-28 23:02 | -54.84234 | -68.30966 | 116 ft | 15 kts | 355° |
| 2026-04-28 23:03 | -54.84146 | -68.30978 | 116 ft | 9 kts | 355° |
| 2026-04-28 23:03 | -54.84094 | -68.31023 | 116 ft | 9 kts | 281° |
| 2026-04-28 23:03 | -54.84097 | -68.31127 | 116 ft | 6 kts | 266° |
| 2026-04-28 23:03 | -54.84078 | -68.31160 | 116 ft | 5 kts | 348° |
| 2026-04-28 23:04 | -54.84047 | -68.31171 | 116 ft | 4 kts | 348° |
| 2026-04-28 23:04 | -54.84019 | -68.31181 | 116 ft | 0 kts | 347° |